createdAt,value
2019-03-12T00:00:29.505Z,6.60
2019-03-12T00:01:29.493Z,7.10
2019-03-12T00:02:29.499Z,7.00
2019-03-12T00:03:29.472Z,6.60
2019-03-12T00:04:29.460Z,6.90
2019-03-12T00:05:29.459Z,7.20
2019-03-12T00:06:29.468Z,7.00
2019-03-12T00:07:29.447Z,8.10
2019-03-12T00:08:29.449Z,7.90
2019-03-12T00:09:29.405Z,7.70
2019-03-12T00:10:29.400Z,7.30
2019-03-12T00:11:29.383Z,7.60
2019-03-12T00:12:29.373Z,7.10
2019-03-12T00:13:29.373Z,8.20
2019-03-12T00:14:29.368Z,8.20
2019-03-12T00:15:29.341Z,7.20
2019-03-12T00:16:29.328Z,7.50
2019-03-12T00:17:29.318Z,7.60
2019-03-12T00:18:29.304Z,6.90
2019-03-12T00:19:29.296Z,7.00
2019-03-12T00:20:29.306Z,7.00
2019-03-12T00:21:29.278Z,6.70
2019-03-12T00:22:29.262Z,6.70
2019-03-12T00:23:29.252Z,7.40
2019-03-12T00:24:29.242Z,7.00
2019-03-12T00:25:29.226Z,7.40
2019-03-12T00:26:29.245Z,6.70
2019-03-12T00:27:29.205Z,7.70
2019-03-12T00:28:29.196Z,6.90
2019-03-12T00:29:29.202Z,7.10
2019-03-12T00:30:29.180Z,7.50
2019-03-12T00:31:29.160Z,7.30
2019-03-12T00:32:29.167Z,7.60
2019-03-12T00:33:29.142Z,6.80
2019-03-12T00:34:29.131Z,6.60
2019-03-12T00:35:29.116Z,7.10
2019-03-12T00:36:29.112Z,6.30
2019-03-12T00:37:29.095Z,7.10
2019-03-12T00:38:29.100Z,6.90
2019-03-12T00:39:29.075Z,6.70
2019-03-12T00:40:29.072Z,6.50
2019-03-12T00:41:29.053Z,6.60
2019-03-12T00:42:29.039Z,6.60
2019-03-12T00:43:29.037Z,6.50
2019-03-12T00:44:29.040Z,6.50
2019-03-12T00:45:29.007Z,6.40
2019-03-12T00:46:28.995Z,6.30
2019-03-12T00:47:28.986Z,6.00
2019-03-12T00:48:28.978Z,5.70
2019-03-12T00:49:28.964Z,6.00
2019-03-12T00:50:28.971Z,6.60
2019-03-12T00:51:28.944Z,6.40
2019-03-12T00:52:28.929Z,5.70
2019-03-12T00:53:28.926Z,6.10
2019-03-12T00:54:28.920Z,6.30
2019-03-12T00:55:28.898Z,6.60
2019-03-12T00:56:28.902Z,6.00
2019-03-12T00:57:28.880Z,6.20
2019-03-12T00:58:28.865Z,6.00
2019-03-12T00:59:28.858Z,6.90
2019-03-12T01:00:28.842Z,6.20
2019-03-12T01:01:28.831Z,6.10
2019-03-12T01:02:28.836Z,6.20
2019-03-12T01:03:28.808Z,6.20
2019-03-12T01:04:28.799Z,6.30
2019-03-12T01:05:28.786Z,6.00
2019-03-12T01:06:28.780Z,6.20
2019-03-12T01:07:28.769Z,6.20
2019-03-12T01:08:28.770Z,6.90
2019-03-12T01:09:28.744Z,6.40
2019-03-12T01:10:28.731Z,5.80
2019-03-12T01:11:28.719Z,6.30
2019-03-12T01:12:28.715Z,6.50
2019-03-12T01:13:28.700Z,6.30
2019-03-12T01:14:28.704Z,6.20
2019-03-12T01:15:28.704Z,6.00
2019-03-12T01:16:28.669Z,5.90
2019-03-12T01:17:28.654Z,6.10
2019-03-12T01:18:28.647Z,6.30
2019-03-12T01:19:28.635Z,5.90
2019-03-12T01:20:28.651Z,6.00
2019-03-12T01:21:28.612Z,6.30
2019-03-12T01:22:28.599Z,6.20
2019-03-12T01:23:28.591Z,6.20
2019-03-12T01:24:28.578Z,5.80
2019-03-12T01:25:28.565Z,6.10
2019-03-12T01:26:28.571Z,6.10
2019-03-12T01:27:28.548Z,6.50
2019-03-12T01:28:28.535Z,6.20
2019-03-12T01:29:28.522Z,6.10
2019-03-12T01:30:28.527Z,6.20
2019-03-12T01:31:28.499Z,6.10
2019-03-12T01:32:28.507Z,6.50
2019-03-12T01:33:28.477Z,6.30
2019-03-12T01:34:28.467Z,6.60
2019-03-12T01:35:28.455Z,6.00
2019-03-12T01:36:28.449Z,6.10
2019-03-12T01:37:28.435Z,5.80
2019-03-12T01:38:28.442Z,5.80
2019-03-12T01:39:28.411Z,6.10
2019-03-12T01:40:28.418Z,6.00
2019-03-12T01:41:28.391Z,6.20
2019-03-12T01:42:28.380Z,6.10
2019-03-12T01:43:28.372Z,6.40
2019-03-12T01:44:28.380Z,6.60
2019-03-12T01:45:28.347Z,5.90
2019-03-12T01:46:28.335Z,6.30
2019-03-12T01:47:28.327Z,6.40
2019-03-12T01:48:28.312Z,5.80
2019-03-12T01:49:28.304Z,6.50
2019-03-12T01:50:28.321Z,6.30
2019-03-12T01:51:31.030Z,6.30
2019-03-12T01:52:28.271Z,6.00
2019-03-12T01:53:28.257Z,6.10
2019-03-12T01:54:28.246Z,6.10
2019-03-12T01:55:28.238Z,5.90
2019-03-12T01:56:28.247Z,5.50
2019-03-12T01:57:28.276Z,6.50
2019-03-12T01:58:28.206Z,5.90
2019-03-12T01:59:28.195Z,5.90
2019-03-12T02:00:28.183Z,5.90
2019-03-12T02:01:28.174Z,5.80
2019-03-12T02:02:28.176Z,5.80
2019-03-12T02:03:28.169Z,5.60
2019-03-12T02:04:28.140Z,5.60
2019-03-12T02:05:28.130Z,5.70
2019-03-12T02:06:28.117Z,5.90
2019-03-12T02:07:28.103Z,5.70
2019-03-12T02:08:28.109Z,6.20
2019-03-12T02:09:28.082Z,5.20
2019-03-12T02:10:28.070Z,5.80
2019-03-12T02:11:28.092Z,5.30
2019-03-12T02:12:28.047Z,5.90
2019-03-12T02:13:28.038Z,5.80
2019-03-12T02:14:28.048Z,6.20
2019-03-12T02:15:28.015Z,6.60
2019-03-12T02:16:28.003Z,6.00
2019-03-12T02:17:27.993Z,6.10
2019-03-12T02:18:27.982Z,5.30
2019-03-12T02:19:27.971Z,5.70
2019-03-12T02:20:27.976Z,6.00
2019-03-12T02:21:27.957Z,5.80
2019-03-12T02:22:27.959Z,5.80
2019-03-12T02:23:29.155Z,6.10
2019-03-12T02:24:27.917Z,5.60
2019-03-12T02:25:27.907Z,6.20
2019-03-12T02:26:27.910Z,5.80
2019-03-12T02:27:27.881Z,6.20
2019-03-12T02:28:27.874Z,5.90
2019-03-12T02:29:27.946Z,5.50
2019-03-12T02:30:27.856Z,5.20
2019-03-12T02:31:27.838Z,5.70
2019-03-12T02:32:27.842Z,5.60
2019-03-12T02:33:27.818Z,5.70
2019-03-12T02:34:27.806Z,5.60
2019-03-12T02:35:27.800Z,6.00
2019-03-12T02:36:27.788Z,5.50
2019-03-12T02:37:27.777Z,6.50
2019-03-12T02:38:27.774Z,6.20
2019-03-12T02:39:27.749Z,6.00
2019-03-12T02:40:27.739Z,6.20
2019-03-12T02:41:27.730Z,7.10
2019-03-12T02:42:27.720Z,6.90
2019-03-12T02:43:27.706Z,7.20
2019-03-12T02:44:27.716Z,7.10
2019-03-12T02:45:27.707Z,7.40
2019-03-12T02:46:27.686Z,7.50
2019-03-12T02:47:27.665Z,8.00
2019-03-12T02:48:27.678Z,7.50
2019-03-12T02:49:27.642Z,7.50
2019-03-12T02:50:27.647Z,7.90
2019-03-12T02:51:27.668Z,7.40
2019-03-12T02:52:27.607Z,7.10
2019-03-12T02:53:27.597Z,7.10
2019-03-12T02:54:27.586Z,7.20
2019-03-12T02:55:27.579Z,7.40
2019-03-12T02:56:27.589Z,8.20
2019-03-12T02:57:27.555Z,8.20
2019-03-12T02:58:27.542Z,7.20
2019-03-12T02:59:27.531Z,7.50
2019-03-12T03:00:27.522Z,7.50
2019-03-12T03:01:27.508Z,6.80
2019-03-12T03:02:27.513Z,7.80
2019-03-12T03:03:27.483Z,7.60
2019-03-12T03:04:27.484Z,7.40
2019-03-12T03:05:27.466Z,7.20
2019-03-12T03:06:27.448Z,7.20
2019-03-12T03:07:27.439Z,7.40
2019-03-12T03:08:27.443Z,7.70
2019-03-12T03:09:27.419Z,7.40
2019-03-12T03:10:27.421Z,7.60
2019-03-12T03:11:27.411Z,7.30
2019-03-12T03:12:27.382Z,7.20
2019-03-12T03:13:27.372Z,7.90
2019-03-12T03:14:27.387Z,6.90
2019-03-12T03:15:27.352Z,6.90
2019-03-12T03:16:27.340Z,7.80
2019-03-12T03:17:27.328Z,7.20
2019-03-12T03:18:27.319Z,7.40
2019-03-12T03:19:27.303Z,7.40
2019-03-12T03:20:27.309Z,7.50
2019-03-12T03:21:27.282Z,7.60
2019-03-12T03:22:27.276Z,7.50
2019-03-12T03:23:27.261Z,6.90
2019-03-12T03:24:27.261Z,7.50
2019-03-12T03:25:27.237Z,7.50
2019-03-12T03:26:27.241Z,7.10
2019-03-12T03:27:29.294Z,6.80
2019-03-12T03:28:27.207Z,6.90
2019-03-12T03:29:27.196Z,6.90
2019-03-12T03:30:27.546Z,7.20
2019-03-12T03:31:27.188Z,7.50
2019-03-12T03:32:27.188Z,6.60
2019-03-12T03:33:27.153Z,7.40
2019-03-12T03:34:28.840Z,6.90
2019-03-12T03:35:27.127Z,6.90
2019-03-12T03:36:27.120Z,7.20
2019-03-12T03:37:27.106Z,7.00
2019-03-12T03:38:27.115Z,6.70
2019-03-12T03:39:27.087Z,6.90
2019-03-12T03:40:27.073Z,7.40
2019-03-12T03:41:27.062Z,7.30
2019-03-12T03:42:27.051Z,6.90
2019-03-12T03:43:27.037Z,7.00
2019-03-12T03:44:27.043Z,7.30
2019-03-12T03:45:27.020Z,6.90
2019-03-12T03:46:27.006Z,7.20
2019-03-12T03:47:26.998Z,7.10
2019-03-12T03:48:26.990Z,6.80
2019-03-12T03:49:26.971Z,7.10
2019-03-12T03:50:26.975Z,6.60
2019-03-12T03:51:26.952Z,7.20
2019-03-12T03:52:26.939Z,6.80
2019-03-12T03:53:26.930Z,6.40
2019-03-12T03:54:26.921Z,6.30
2019-03-12T03:55:26.909Z,6.20
2019-03-12T03:56:26.911Z,6.20
2019-03-12T03:57:26.890Z,6.10
2019-03-12T03:58:26.871Z,5.90
2019-03-12T03:59:26.860Z,6.10
2019-03-12T04:00:26.851Z,5.70
2019-03-12T04:01:26.850Z,6.00
2019-03-12T04:02:26.853Z,5.80
2019-03-12T04:03:26.824Z,5.30
2019-03-12T04:04:26.807Z,4.90
2019-03-12T04:05:26.794Z,5.50
2019-03-12T04:06:26.785Z,5.40
2019-03-12T04:07:26.773Z,5.70
2019-03-12T04:08:26.806Z,4.90
2019-03-12T04:09:26.755Z,4.80
2019-03-12T04:10:26.751Z,4.60
2019-03-12T04:11:26.732Z,4.80
2019-03-12T04:12:26.716Z,4.50
2019-03-12T04:13:26.722Z,4.30
2019-03-12T04:14:26.711Z,4.30
2019-03-12T04:15:26.698Z,4.40
2019-03-12T04:16:26.673Z,4.00
2019-03-12T04:17:26.662Z,4.10
2019-03-12T04:18:26.650Z,4.10
2019-03-12T04:19:26.660Z,4.00
2019-03-12T04:20:26.644Z,4.10
2019-03-12T04:21:26.616Z,4.40
2019-03-12T04:22:26.616Z,4.30
2019-03-12T04:23:26.597Z,4.30
2019-03-12T04:24:26.603Z,4.70
2019-03-12T04:25:26.578Z,4.30
2019-03-12T04:26:26.586Z,4.00
2019-03-12T04:27:26.557Z,4.20
2019-03-12T04:28:26.537Z,4.60
2019-03-12T04:29:26.526Z,4.30
2019-03-12T04:30:26.521Z,4.20
2019-03-12T04:31:26.505Z,4.00
2019-03-12T04:32:26.510Z,4.10
2019-03-12T04:33:26.485Z,4.30
2019-03-12T04:34:26.470Z,4.40
2019-03-12T04:35:26.461Z,4.30
2019-03-12T04:36:26.454Z,4.30
2019-03-12T04:37:26.435Z,4.60
2019-03-12T04:38:26.444Z,4.50
2019-03-12T04:39:26.419Z,4.50
2019-03-12T04:40:26.410Z,4.60
2019-03-12T04:41:26.392Z,4.50
2019-03-12T04:42:26.385Z,5.10
2019-03-12T04:43:26.381Z,4.20
2019-03-12T04:44:26.375Z,4.40
2019-03-12T04:45:26.351Z,4.60
2019-03-12T04:46:26.335Z,4.60
2019-03-12T04:47:26.328Z,4.40
2019-03-12T04:48:26.317Z,4.30
2019-03-12T04:49:26.312Z,4.40
2019-03-12T04:50:26.315Z,4.00
2019-03-12T04:51:26.380Z,4.10
2019-03-12T04:52:26.270Z,3.80
2019-03-12T04:53:26.259Z,4.40
2019-03-12T04:54:26.250Z,4.10
2019-03-12T04:55:26.238Z,4.00
2019-03-12T04:56:26.243Z,4.10
2019-03-12T04:57:26.218Z,3.70
2019-03-12T04:58:26.206Z,3.80
2019-03-12T04:59:26.196Z,3.60
2019-03-12T05:00:26.183Z,3.80
2019-03-12T05:01:26.183Z,3.60
2019-03-12T05:02:26.195Z,3.30
2019-03-12T05:03:26.199Z,3.50
2019-03-12T05:04:26.179Z,3.60
2019-03-12T05:05:26.139Z,3.90
2019-03-12T05:06:26.133Z,3.80
2019-03-12T05:07:26.107Z,4.00
2019-03-12T05:08:26.110Z,3.70
2019-03-12T05:09:26.085Z,3.70
2019-03-12T05:10:26.071Z,3.80
2019-03-12T05:11:26.059Z,3.50
2019-03-12T05:12:26.070Z,4.20
2019-03-12T05:13:26.038Z,3.40
2019-03-12T05:14:26.054Z,3.40
2019-03-12T05:15:26.016Z,3.40
2019-03-12T05:16:26.005Z,3.20
2019-03-12T05:17:25.992Z,3.50
2019-03-12T05:18:25.985Z,3.30
2019-03-12T05:19:25.973Z,3.90
2019-03-12T05:20:25.976Z,3.50
2019-03-12T05:21:25.953Z,3.40
2019-03-12T05:22:25.961Z,3.30
2019-03-12T05:23:25.963Z,3.20
2019-03-12T05:24:25.920Z,3.20
2019-03-12T05:25:25.903Z,3.50
2019-03-12T05:26:25.915Z,3.70
2019-03-12T05:27:25.884Z,3.60
2019-03-12T05:28:25.874Z,3.30
2019-03-12T05:29:25.858Z,3.20
2019-03-12T05:30:25.952Z,3.40
2019-03-12T05:31:25.840Z,4.00
2019-03-12T05:32:25.859Z,3.40
2019-03-12T05:33:25.838Z,3.70
2019-03-12T05:34:25.806Z,3.00
2019-03-12T05:35:25.790Z,3.50
2019-03-12T05:36:25.780Z,3.10
2019-03-12T05:37:25.774Z,3.20
2019-03-12T05:38:25.775Z,3.10
2019-03-12T05:39:25.755Z,3.00
2019-03-12T05:40:25.737Z,3.70
2019-03-12T05:41:25.725Z,3.50
2019-03-12T05:42:25.729Z,3.60
2019-03-12T05:43:25.707Z,3.60
2019-03-12T05:44:25.721Z,3.30
2019-03-12T05:45:25.688Z,3.00
2019-03-12T05:46:25.672Z,3.20
2019-03-12T05:47:25.659Z,3.80
2019-03-12T05:48:25.656Z,3.50
2019-03-12T05:49:25.636Z,3.30
2019-03-12T05:50:25.757Z,3.00
2019-03-12T05:51:25.614Z,3.50
2019-03-12T05:52:25.605Z,3.60
2019-03-12T05:53:25.596Z,3.40
2019-03-12T05:54:25.585Z,3.30
2019-03-12T05:55:25.570Z,3.40
2019-03-12T05:56:25.576Z,3.30
2019-03-12T05:57:25.556Z,3.00
2019-03-12T05:58:25.544Z,3.60
2019-03-12T05:59:25.531Z,3.60
2019-03-12T06:00:25.516Z,3.80
2019-03-12T06:01:25.508Z,3.30
2019-03-12T06:02:25.518Z,3.10
2019-03-12T06:03:25.482Z,3.20
2019-03-12T06:04:25.473Z,3.10
2019-03-12T06:05:25.461Z,3.50
2019-03-12T06:06:25.453Z,3.30
2019-03-12T06:07:25.521Z,3.60
2019-03-12T06:08:25.481Z,3.60
2019-03-12T06:09:30.226Z,3.20
2019-03-12T06:10:26.413Z,3.50
2019-03-12T06:11:25.403Z,3.30
2019-03-12T06:12:25.383Z,3.00
2019-03-12T06:13:25.376Z,3.30
2019-03-12T06:14:25.380Z,3.30
2019-03-12T06:15:25.359Z,3.30
2019-03-12T06:16:25.342Z,3.70
2019-03-12T06:17:25.333Z,3.30
2019-03-12T06:18:25.323Z,3.10
2019-03-12T06:19:25.308Z,3.70
2019-03-12T06:20:25.318Z,3.30
2019-03-12T06:21:25.284Z,3.70
2019-03-12T06:22:25.277Z,3.30
2019-03-12T06:23:25.314Z,3.70
2019-03-12T06:24:25.267Z,3.10
2019-03-12T06:25:25.240Z,3.50
2019-03-12T06:26:25.252Z,3.10
2019-03-12T06:27:25.244Z,3.90
2019-03-12T06:28:25.208Z,3.80
2019-03-12T06:29:25.198Z,3.50
2019-03-12T06:30:26.018Z,3.50
2019-03-12T06:31:25.174Z,3.30
2019-03-12T06:32:25.183Z,3.50
2019-03-12T06:33:25.152Z,3.80
2019-03-12T06:34:25.160Z,3.40
2019-03-12T06:35:25.130Z,3.00
2019-03-12T06:36:25.118Z,3.00
2019-03-12T06:37:25.110Z,3.50
2019-03-12T06:38:25.181Z,3.40
2019-03-12T06:39:25.085Z,3.00
2019-03-12T06:40:25.080Z,3.30
2019-03-12T06:41:25.071Z,3.70
2019-03-12T06:42:25.054Z,3.30
2019-03-12T06:43:25.060Z,3.60
2019-03-12T06:44:25.048Z,3.40
2019-03-12T06:45:25.019Z,3.50
2019-03-12T06:46:25.009Z,3.50
2019-03-12T06:47:25.000Z,3.70
2019-03-12T06:48:24.986Z,3.20
2019-03-12T06:49:24.976Z,3.30
2019-03-12T06:50:24.982Z,3.60
2019-03-12T06:51:24.952Z,3.30
2019-03-12T06:52:24.942Z,3.50
2019-03-12T06:53:24.933Z,3.60
2019-03-12T06:54:24.947Z,3.70
2019-03-12T06:55:24.921Z,3.30
2019-03-12T06:56:24.948Z,4.00
2019-03-12T06:57:24.887Z,3.10
2019-03-12T06:58:24.881Z,3.80
2019-03-12T06:59:24.866Z,3.30
2019-03-12T07:00:24.858Z,3.30
2019-03-12T07:01:24.842Z,3.20
2019-03-12T07:02:24.871Z,3.40
2019-03-12T07:03:24.824Z,2.90
2019-03-12T07:04:24.831Z,3.20
2019-03-12T07:05:24.799Z,3.30
2019-03-12T07:06:24.787Z,3.80
2019-03-12T07:07:24.791Z,3.30
2019-03-12T07:08:24.797Z,3.40
2019-03-12T07:09:24.757Z,3.80
2019-03-12T07:10:24.744Z,3.20
2019-03-12T07:11:24.775Z,3.20
2019-03-12T07:12:24.722Z,3.30
2019-03-12T07:13:24.710Z,3.40
2019-03-12T07:14:24.757Z,3.00
2019-03-12T07:15:24.698Z,3.20
2019-03-12T07:16:24.698Z,3.90
2019-03-12T07:17:24.686Z,3.10
2019-03-12T07:18:24.659Z,3.20
2019-03-12T07:19:24.649Z,3.60
2019-03-12T07:20:24.661Z,3.00
2019-03-12T07:21:24.631Z,3.30
2019-03-12T07:22:24.617Z,3.40
2019-03-12T07:23:24.604Z,3.40
2019-03-12T07:24:24.600Z,3.70
2019-03-12T07:25:24.608Z,3.30
2019-03-12T07:26:24.589Z,3.50
2019-03-12T07:27:24.587Z,3.50
2019-03-12T07:28:24.581Z,3.10
2019-03-12T07:29:24.547Z,3.60
2019-03-12T07:30:24.539Z,3.50
2019-03-12T07:31:24.726Z,3.50
2019-03-12T07:32:24.525Z,3.40
2019-03-12T07:33:24.498Z,3.40
2019-03-12T07:34:36.136Z,3.40
2019-03-12T07:35:25.487Z,3.90
2019-03-12T07:36:24.468Z,3.50
2019-03-12T07:37:24.460Z,3.80
2019-03-12T07:38:24.471Z,2.90
2019-03-12T07:39:24.438Z,3.60
2019-03-12T07:40:24.437Z,3.30
2019-03-12T07:41:31.902Z,3.60
2019-03-12T07:42:25.403Z,3.70
2019-03-12T07:43:24.401Z,3.90
2019-03-12T07:44:24.402Z,3.70
2019-03-12T07:45:24.372Z,3.80
2019-03-12T07:46:24.368Z,3.60
2019-03-12T07:47:35.127Z,3.50
2019-03-12T07:48:25.343Z,3.70
2019-03-12T07:49:24.333Z,3.60
2019-03-12T07:50:24.341Z,3.80
2019-03-12T07:51:24.314Z,3.60
2019-03-12T07:52:24.303Z,3.50
2019-03-12T07:53:24.291Z,3.80
2019-03-12T07:54:24.279Z,3.90
2019-03-12T07:55:24.270Z,4.00
2019-03-12T07:56:24.280Z,4.00
2019-03-12T07:57:24.250Z,3.40
2019-03-12T07:58:35.270Z,3.80
2019-03-12T07:59:25.225Z,3.70
2019-03-12T08:00:24.219Z,3.60
2019-03-12T08:01:25.125Z,3.60
2019-03-12T08:02:24.215Z,3.80
2019-03-12T08:03:24.181Z,3.50
2019-03-12T08:04:24.168Z,3.80
2019-03-12T08:05:24.214Z,3.30
2019-03-12T08:06:24.147Z,3.50
2019-03-12T08:07:24.136Z,3.50
2019-03-12T08:08:24.140Z,3.40
2019-03-12T08:09:24.114Z,4.00
2019-03-12T08:10:24.102Z,3.30
2019-03-12T08:11:24.103Z,3.60
2019-03-12T08:12:24.079Z,3.80
2019-03-12T08:13:24.069Z,3.70
2019-03-12T08:14:26.775Z,3.80
2019-03-12T08:15:24.050Z,3.50
2019-03-12T08:16:24.063Z,3.80
2019-03-12T08:17:24.028Z,4.00
2019-03-12T08:18:24.012Z,3.90
2019-03-12T08:19:24.001Z,3.90
2019-03-12T08:20:24.006Z,3.70
2019-03-12T08:21:23.984Z,3.30
2019-03-12T08:22:23.967Z,4.00
2019-03-12T08:23:23.957Z,3.50
2019-03-12T08:24:23.947Z,3.70
2019-03-12T08:25:23.933Z,3.30
2019-03-12T08:26:23.940Z,3.50
2019-03-12T08:27:26.054Z,3.50
2019-03-12T08:28:23.916Z,3.80
2019-03-12T08:29:23.889Z,4.00
2019-03-12T08:30:23.882Z,3.30
2019-03-12T08:31:23.864Z,3.20
2019-03-12T08:32:24.103Z,3.90
2019-03-12T08:33:23.843Z,3.60
2019-03-12T08:34:23.834Z,3.60
2019-03-12T08:35:23.823Z,3.20
2019-03-12T08:36:23.819Z,3.50
2019-03-12T08:37:23.811Z,3.70
2019-03-12T08:38:23.807Z,3.60
2019-03-12T08:39:23.792Z,3.20
2019-03-12T08:40:23.766Z,3.30
2019-03-12T08:41:23.763Z,3.70
2019-03-12T08:42:23.744Z,3.40
2019-03-12T08:43:23.731Z,3.40
2019-03-12T08:44:26.272Z,3.40
2019-03-12T08:45:23.707Z,3.60
2019-03-12T08:46:23.701Z,3.40
2019-03-12T08:47:23.688Z,3.50
2019-03-12T08:48:23.672Z,3.00
2019-03-12T08:49:23.665Z,3.40
2019-03-12T08:50:23.724Z,3.40
2019-03-12T08:51:23.637Z,3.50
2019-03-12T08:52:23.628Z,3.10
2019-03-12T08:53:23.612Z,3.30
2019-03-12T08:54:23.603Z,3.50
2019-03-12T08:55:23.588Z,3.60
2019-03-12T08:56:23.593Z,3.60
2019-03-12T08:57:23.564Z,3.80
2019-03-12T08:58:23.593Z,3.20
2019-03-12T08:59:23.549Z,3.40
2019-03-12T09:00:24.248Z,3.70
2019-03-12T09:01:23.519Z,3.40
2019-03-12T09:02:23.526Z,3.40
2019-03-12T09:03:23.498Z,3.20
2019-03-12T09:04:23.481Z,3.80
2019-03-12T09:05:23.467Z,3.50
2019-03-12T09:06:23.459Z,3.80
2019-03-12T09:07:23.636Z,3.10
2019-03-12T09:08:23.468Z,3.50
2019-03-12T09:09:23.446Z,3.40
2019-03-12T09:10:23.410Z,3.60
2019-03-12T09:11:23.395Z,3.40
2019-03-12T09:12:23.381Z,3.30
2019-03-12T09:13:23.368Z,3.40
2019-03-12T09:14:23.374Z,3.40
2019-03-12T09:15:23.346Z,3.50
2019-03-12T09:16:23.337Z,3.50
2019-03-12T09:17:23.321Z,3.30
2019-03-12T09:18:23.308Z,3.00
2019-03-12T09:19:23.301Z,3.20
2019-03-12T09:20:23.306Z,3.60
2019-03-12T09:21:23.281Z,3.50
2019-03-12T09:22:23.260Z,3.30
2019-03-12T09:23:23.249Z,3.90
2019-03-12T09:24:23.239Z,3.60
2019-03-12T09:25:23.226Z,2.90
2019-03-12T09:26:23.230Z,3.40
2019-03-12T09:27:23.202Z,3.00
2019-03-12T09:28:23.192Z,3.20
2019-03-12T09:29:23.184Z,3.30
2019-03-12T09:30:23.167Z,3.50
2019-03-12T09:31:23.155Z,2.80
2019-03-12T09:32:23.162Z,3.60
2019-03-12T09:33:23.132Z,3.30
2019-03-12T09:34:23.132Z,3.60
2019-03-12T09:35:23.112Z,3.40
2019-03-12T09:36:23.100Z,3.10
2019-03-12T09:37:23.088Z,3.20
2019-03-12T09:38:23.172Z,3.60
2019-03-12T09:39:23.068Z,3.30
2019-03-12T09:40:23.058Z,2.90
2019-03-12T09:41:23.044Z,3.00
2019-03-12T09:42:23.034Z,3.50
2019-03-12T09:43:23.041Z,3.20
2019-03-12T09:44:23.034Z,2.90
2019-03-12T09:45:23.000Z,3.50
2019-03-12T09:46:22.986Z,3.00
2019-03-12T09:47:22.977Z,3.30
2019-03-12T09:48:22.992Z,3.30
2019-03-12T09:49:22.968Z,3.30
2019-03-12T09:50:22.958Z,3.20
2019-03-12T09:51:22.993Z,3.60
2019-03-12T09:52:22.924Z,3.30
2019-03-12T09:53:22.912Z,3.40
2019-03-12T09:54:22.930Z,3.20
2019-03-12T09:55:22.884Z,3.40
2019-03-12T09:56:22.893Z,3.10
2019-03-12T09:57:22.889Z,3.20
2019-03-12T09:58:22.854Z,3.10
2019-03-12T09:59:22.839Z,3.40
2019-03-12T10:00:22.828Z,3.40
2019-03-12T10:01:22.820Z,3.20
2019-03-12T10:02:22.823Z,3.10
2019-03-12T10:03:22.794Z,3.30
2019-03-12T10:04:22.865Z,3.20
2019-03-12T10:05:22.772Z,3.20
2019-03-12T10:06:22.763Z,3.30
2019-03-12T10:07:22.753Z,3.10
2019-03-12T10:08:22.761Z,3.00
2019-03-12T10:09:22.730Z,3.10
2019-03-12T10:10:22.720Z,2.70
2019-03-12T10:11:22.706Z,3.10
2019-03-12T10:12:22.696Z,3.30
2019-03-12T10:13:22.685Z,3.00
2019-03-12T10:14:22.696Z,2.90
2019-03-12T10:15:22.678Z,3.10
2019-03-12T10:16:22.645Z,2.90
2019-03-12T10:17:22.636Z,3.00
2019-03-12T10:18:22.624Z,3.00
2019-03-12T10:19:22.612Z,2.80
2019-03-12T10:20:22.628Z,2.70
2019-03-12T10:21:22.593Z,2.80
2019-03-12T10:22:22.591Z,3.00
2019-03-12T10:23:22.577Z,2.90
2019-03-12T10:24:22.556Z,2.70
2019-03-12T10:25:22.544Z,3.00
2019-03-12T10:26:22.552Z,3.00
2019-03-12T10:27:22.540Z,2.70
2019-03-12T10:28:22.513Z,2.70
2019-03-12T10:29:22.500Z,2.90
2019-03-12T10:30:22.487Z,2.80
2019-03-12T10:31:22.477Z,3.00
2019-03-12T10:32:22.489Z,2.80
2019-03-12T10:33:22.454Z,2.60
2019-03-12T10:34:29.511Z,2.40
2019-03-12T10:35:23.431Z,2.90
2019-03-12T10:36:22.649Z,2.70
2019-03-12T10:37:22.409Z,3.10
2019-03-12T10:38:22.416Z,2.90
2019-03-12T10:39:22.385Z,2.70
2019-03-12T10:40:22.376Z,3.00
2019-03-12T10:41:22.365Z,3.10
2019-03-12T10:42:22.352Z,2.70
2019-03-12T10:43:22.342Z,2.40
2019-03-12T10:44:22.347Z,3.00
2019-03-12T10:45:22.338Z,2.80
2019-03-12T10:46:22.306Z,3.00
2019-03-12T10:47:22.300Z,2.80
2019-03-12T10:48:22.283Z,3.00
2019-03-12T10:49:22.272Z,2.70
2019-03-12T10:50:22.280Z,3.30
2019-03-12T10:51:22.251Z,3.30
2019-03-12T10:52:22.249Z,2.90
2019-03-12T10:53:22.226Z,2.90
2019-03-12T10:54:22.217Z,2.60
2019-03-12T10:55:22.204Z,3.50
2019-03-12T10:56:22.206Z,3.40
2019-03-12T10:57:22.181Z,2.60
2019-03-12T10:58:22.172Z,2.90
2019-03-12T10:59:22.157Z,2.70
2019-03-12T11:00:22.151Z,3.00
2019-03-12T11:01:22.133Z,2.70
2019-03-12T11:02:22.137Z,2.60
2019-03-12T11:03:22.113Z,2.80
2019-03-12T11:04:22.112Z,2.90
2019-03-12T11:05:22.090Z,2.70
2019-03-12T11:06:22.081Z,3.10
2019-03-12T11:07:22.067Z,2.80
2019-03-12T11:08:22.071Z,3.10
2019-03-12T11:09:22.047Z,2.70
2019-03-12T11:10:22.032Z,2.90
2019-03-12T11:11:22.042Z,2.60
2019-03-12T11:12:22.013Z,2.80
2019-03-12T11:13:22.002Z,2.90
2019-03-12T11:14:22.015Z,3.30
2019-03-12T11:15:21.978Z,2.80
2019-03-12T11:16:21.964Z,3.20
2019-03-12T11:17:21.957Z,3.10
2019-03-12T11:18:21.953Z,2.90
2019-03-12T11:19:21.948Z,3.00
2019-03-12T11:20:21.934Z,2.70
2019-03-12T11:21:21.910Z,2.60
2019-03-12T11:22:21.900Z,2.50
2019-03-12T11:23:21.886Z,2.60
2019-03-12T11:24:21.876Z,2.80
2019-03-12T11:25:27.150Z,3.00
2019-03-12T11:26:22.865Z,2.70
2019-03-12T11:27:21.839Z,3.10
2019-03-12T11:28:21.827Z,3.10
2019-03-12T11:29:21.816Z,2.70
2019-03-12T11:30:21.825Z,3.00
2019-03-12T11:31:21.791Z,3.00
2019-03-12T11:32:21.828Z,3.10
2019-03-12T11:33:21.773Z,3.00
2019-03-12T11:34:21.759Z,2.50
2019-03-12T11:35:21.770Z,2.70
2019-03-12T11:36:21.741Z,3.10
2019-03-12T11:37:21.733Z,3.10
2019-03-12T11:38:21.731Z,2.90
2019-03-12T11:39:21.712Z,3.20
2019-03-12T11:40:21.747Z,2.80
2019-03-12T11:41:21.682Z,2.30
2019-03-12T11:42:21.667Z,2.80
2019-03-12T11:43:21.652Z,2.70
2019-03-12T11:44:21.689Z,3.00
2019-03-12T11:45:34.928Z,3.20
2019-03-12T11:46:22.617Z,3.00
2019-03-12T11:47:21.611Z,2.50
2019-03-12T11:48:21.594Z,2.80
2019-03-12T11:49:21.688Z,2.50
2019-03-12T11:50:21.908Z,2.50
2019-03-12T11:51:21.562Z,2.70
2019-03-12T11:52:21.547Z,2.80
2019-03-12T11:53:21.545Z,3.00
2019-03-12T11:54:21.531Z,2.50
2019-03-12T11:55:21.519Z,2.80
2019-03-12T11:56:21.537Z,2.90
2019-03-12T11:57:21.490Z,2.70
2019-03-12T11:58:21.495Z,2.40
2019-03-12T11:59:21.481Z,2.90
2019-03-12T12:00:21.481Z,2.80
2019-03-12T12:01:21.470Z,3.00
2019-03-12T12:02:21.454Z,2.90
2019-03-12T12:03:21.435Z,2.60
2019-03-12T12:04:21.408Z,2.60
2019-03-12T12:05:21.396Z,2.50
2019-03-12T12:06:21.404Z,3.10
2019-03-12T12:07:21.386Z,2.70
2019-03-12T12:08:21.399Z,3.00
2019-03-12T12:09:21.353Z,2.60
2019-03-12T12:10:21.338Z,2.70
2019-03-12T12:11:21.332Z,2.80
2019-03-12T12:12:21.316Z,2.70
2019-03-12T12:13:21.311Z,2.90
2019-03-12T12:14:21.306Z,2.80
2019-03-12T12:15:21.284Z,2.60
2019-03-12T12:16:21.286Z,2.60
2019-03-12T12:17:21.260Z,2.70
2019-03-12T12:18:21.260Z,3.00
2019-03-12T12:19:21.238Z,2.90
2019-03-12T12:20:29.476Z,2.90
2019-03-12T12:21:22.213Z,2.80
2019-03-12T12:22:21.201Z,2.80
2019-03-12T12:23:21.189Z,3.20
2019-03-12T12:24:21.187Z,2.50
2019-03-12T12:25:21.171Z,2.90
2019-03-12T12:26:21.213Z,2.70
2019-03-12T12:27:21.146Z,2.90
2019-03-12T12:28:21.137Z,2.80
2019-03-12T12:29:21.121Z,2.60
2019-03-12T12:30:21.109Z,2.80
2019-03-12T12:31:21.113Z,2.80
2019-03-12T12:32:21.106Z,2.60
2019-03-12T12:33:21.115Z,3.00
2019-03-12T12:34:21.127Z,2.80
2019-03-12T12:35:21.053Z,3.40
2019-03-12T12:36:21.042Z,2.80
2019-03-12T12:37:21.032Z,2.90
2019-03-12T12:38:21.037Z,2.50
2019-03-12T12:39:21.009Z,2.80
2019-03-12T12:40:21.043Z,2.50
2019-03-12T12:41:20.984Z,2.60
2019-03-12T12:42:20.973Z,2.80
2019-03-12T12:43:20.967Z,2.50
2019-03-12T12:44:20.971Z,2.60
2019-03-12T12:45:20.938Z,2.50
2019-03-12T12:46:20.931Z,3.00
2019-03-12T12:47:20.914Z,2.60
2019-03-12T12:48:20.904Z,2.30
2019-03-12T12:49:20.897Z,2.60
2019-03-12T12:50:20.906Z,2.40
2019-03-12T12:51:20.877Z,2.50
2019-03-12T12:52:20.856Z,2.80
2019-03-12T12:53:20.846Z,2.50
2019-03-12T12:54:20.837Z,2.60
2019-03-12T12:55:20.825Z,2.60
2019-03-12T12:56:20.832Z,2.40
2019-03-12T12:57:20.802Z,2.60
2019-03-12T12:58:20.787Z,2.40
2019-03-12T12:59:20.776Z,2.80
2019-03-12T13:00:20.769Z,2.80
2019-03-12T13:01:20.752Z,2.60
2019-03-12T13:02:20.779Z,2.60
2019-03-12T13:03:20.730Z,2.40
2019-03-12T13:04:20.721Z,2.50
2019-03-12T13:05:20.717Z,2.20
2019-03-12T13:06:20.698Z,2.50
2019-03-12T13:07:20.686Z,2.50
2019-03-12T13:08:20.697Z,2.80
2019-03-12T13:09:20.761Z,2.80
2019-03-12T13:10:20.649Z,2.60
2019-03-12T13:11:20.637Z,2.20
2019-03-12T13:12:20.625Z,2.30
2019-03-12T13:13:20.620Z,2.90
2019-03-12T13:14:20.628Z,3.10
2019-03-12T13:15:20.597Z,2.70
2019-03-12T13:16:25.353Z,2.60
2019-03-12T13:17:21.565Z,2.30
2019-03-12T13:18:20.559Z,2.70